sensor_id;sensor_type;location;lat;lon;timestamp;P1;durP1;ratioP1;P2;durP2;ratioP2
43419;SDS011;29017;51.514;-0.178;2023-05-24T00:00:02;7.45;;;1.00;;
43419;SDS011;29017;51.514;-0.178;2023-05-24T00:02:31;7.35;;;1.17;;
43419;SDS011;29017;51.514;-0.178;2023-05-24T00:04:58;7.50;;;1.35;;
43419;SDS011;29017;51.514;-0.178;2023-05-24T00:07:30;8.00;;;1.30;;
43419;SDS011;29017;51.514;-0.178;2023-05-24T00:09:57;7.57;;;0.90;;
43419;SDS011;29017;51.514;-0.178;2023-05-24T00:12:24;10.35;;;1.38;;
43419;SDS011;29017;51.514;-0.178;2023-05-24T00:14:51;10.95;;;0.75;;
43419;SDS011;29017;51.514;-0.178;2023-05-24T00:17:18;12.68;;;0.90;;
43419;SDS011;29017;51.514;-0.178;2023-05-24T00:19:45;6.78;;;1.10;;
43419;SDS011;29017;51.514;-0.178;2023-05-24T00:22:12;6.95;;;0.90;;
43419;SDS011;29017;51.514;-0.178;2023-05-24T00:24:39;9.18;;;0.80;;
43419;SDS011;29017;51.514;-0.178;2023-05-24T00:27:06;8.75;;;0.80;;
43419;SDS011;29017;51.514;-0.178;2023-05-24T00:29:34;7.53;;;1.10;;
43419;SDS011;29017;51.514;-0.178;2023-05-24T00:32:01;10.35;;;0.82;;
43419;SDS011;29017;51.514;-0.178;2023-05-24T00:34:28;7.10;;;0.80;;
43419;SDS011;29017;51.514;-0.178;2023-05-24T00:36:55;7.70;;;1.88;;
43419;SDS011;29017;51.514;-0.178;2023-05-24T00:39:23;5.63;;;0.80;;
43419;SDS011;29017;51.514;-0.178;2023-05-24T00:41:50;6.38;;;0.60;;
43419;SDS011;29017;51.514;-0.178;2023-05-24T00:44:17;6.65;;;1.17;;
43419;SDS011;29017;51.514;-0.178;2023-05-24T00:46:44;3.28;;;0.50;;
43419;SDS011;29017;51.514;-0.178;2023-05-24T00:49:11;4.25;;;0.80;;
43419;SDS011;29017;51.514;-0.178;2023-05-24T00:51:39;3.78;;;0.60;;
43419;SDS011;29017;51.514;-0.178;2023-05-24T00:54:07;7.00;;;0.80;;
43419;SDS011;29017;51.514;-0.178;2023-05-24T00:56:34;7.47;;;0.68;;
43419;SDS011;29017;51.514;-0.178;2023-05-24T00:59:01;7.13;;;0.60;;
43419;SDS011;29017;51.514;-0.178;2023-05-24T01:01:28;7.20;;;0.93;;
43419;SDS011;29017;51.514;-0.178;2023-05-24T01:03:56;6.63;;;0.68;;
43419;SDS011;29017;51.514;-0.178;2023-05-24T01:06:26;6.68;;;0.60;;
43419;SDS011;29017;51.514;-0.178;2023-05-24T01:08:58;6.07;;;0.50;;
43419;SDS011;29017;51.514;-0.178;2023-05-24T01:17:13;7.53;;;0.90;;
43419;SDS011;29017;51.514;-0.178;2023-05-24T01:27:32;4.13;;;0.68;;
43419;SDS011;29017;51.514;-0.178;2023-05-24T01:30:02;6.32;;;0.52;;
43419;SDS011;29017;51.514;-0.178;2023-05-24T01:32:30;6.55;;;0.63;;
43419;SDS011;29017;51.514;-0.178;2023-05-24T01:34:58;5.43;;;0.45;;
43419;SDS011;29017;51.514;-0.178;2023-05-24T01:37:25;6.40;;;0.60;;
43419;SDS011;29017;51.514;-0.178;2023-05-24T01:39:52;5.80;;;0.68;;
43419;SDS011;29017;51.514;-0.178;2023-05-24T01:42:23;4.35;;;0.50;;
43419;SDS011;29017;51.514;-0.178;2023-05-24T01:47:48;6.53;;;0.60;;
43419;SDS011;29017;51.514;-0.178;2023-05-24T01:50:33;5.45;;;0.63;;
43419;SDS011;29017;51.514;-0.178;2023-05-24T01:53:12;6.05;;;1.30;;
43419;SDS011;29017;51.514;-0.178;2023-05-24T01:55:42;2.65;;;0.40;;
43419;SDS011;29017;51.514;-0.178;2023-05-24T01:58:13;7.43;;;0.70;;
43419;SDS011;29017;51.514;-0.178;2023-05-24T02:00:43;3.72;;;0.70;;
43419;SDS011;29017;51.514;-0.178;2023-05-24T02:03:12;6.57;;;1.58;;
43419;SDS011;29017;51.514;-0.178;2023-05-24T02:05:41;4.63;;;0.57;;
43419;SDS011;29017;51.514;-0.178;2023-05-24T02:08:09;7.97;;;0.80;;
43419;SDS011;29017;51.514;-0.178;2023-05-24T02:10:38;4.43;;;0.70;;
43419;SDS011;29017;51.514;-0.178;2023-05-24T02:13:07;10.70;;;1.13;;
43419;SDS011;29017;51.514;-0.178;2023-05-24T02:15:34;13.75;;;0.95;;
43419;SDS011;29017;51.514;-0.178;2023-05-24T02:18:01;8.20;;;1.35;;
43419;SDS011;29017;51.514;-0.178;2023-05-24T02:20:29;6.95;;;0.90;;
43419;SDS011;29017;51.514;-0.178;2023-05-24T02:22:57;6.97;;;0.85;;
43419;SDS011;29017;51.514;-0.178;2023-05-24T02:25:24;5.72;;;0.73;;
43419;SDS011;29017;51.514;-0.178;2023-05-24T02:27:51;6.80;;;1.27;;
43419;SDS011;29017;51.514;-0.178;2023-05-24T02:30:18;8.25;;;0.95;;
43419;SDS011;29017;51.514;-0.178;2023-05-24T02:32:46;8.57;;;1.52;;
43419;SDS011;29017;51.514;-0.178;2023-05-24T02:35:13;6.95;;;0.80;;
43419;SDS011;29017;51.514;-0.178;2023-05-24T02:37:40;5.88;;;0.88;;
43419;SDS011;29017;51.514;-0.178;2023-05-24T02:40:07;8.40;;;1.33;;
43419;SDS011;29017;51.514;-0.178;2023-05-24T02:42:35;9.02;;;1.13;;
43419;SDS011;29017;51.514;-0.178;2023-05-24T02:45:02;7.10;;;0.90;;
43419;SDS011;29017;51.514;-0.178;2023-05-24T02:47:30;8.20;;;0.82;;
43419;SDS011;29017;51.514;-0.178;2023-05-24T02:49:57;8.80;;;1.40;;
43419;SDS011;29017;51.514;-0.178;2023-05-24T02:52:24;10.07;;;1.10;;
43419;SDS011;29017;51.514;-0.178;2023-05-24T02:54:52;4.80;;;0.90;;
43419;SDS011;29017;51.514;-0.178;2023-05-24T02:57:19;8.40;;;1.30;;
43419;SDS011;29017;51.514;-0.178;2023-05-24T02:59:46;4.65;;;0.95;;
43419;SDS011;29017;51.514;-0.178;2023-05-24T03:02:13;5.28;;;0.90;;
43419;SDS011;29017;51.514;-0.178;2023-05-24T03:04:40;6.95;;;0.85;;
43419;SDS011;29017;51.514;-0.178;2023-05-24T03:07:08;6.03;;;0.88;;
43419;SDS011;29017;51.514;-0.178;2023-05-24T03:09:36;9.80;;;1.23;;
43419;SDS011;29017;51.514;-0.178;2023-05-24T03:12:03;7.85;;;1.23;;
43419;SDS011;29017;51.514;-0.178;2023-05-24T03:14:31;8.75;;;2.08;;
43419;SDS011;29017;51.514;-0.178;2023-05-24T03:16:58;8.27;;;1.27;;
43419;SDS011;29017;51.514;-0.178;2023-05-24T03:19:25;7.80;;;1.20;;
43419;SDS011;29017;51.514;-0.178;2023-05-24T03:21:52;10.77;;;1.50;;
43419;SDS011;29017;51.514;-0.178;2023-05-24T03:24:19;5.82;;;1.10;;
43419;SDS011;29017;51.514;-0.178;2023-05-24T03:26:47;11.80;;;1.17;;
43419;SDS011;29017;51.514;-0.178;2023-05-24T03:29:14;7.97;;;1.35;;
43419;SDS011;29017;51.514;-0.178;2023-05-24T03:31:41;8.57;;;1.33;;
43419;SDS011;29017;51.514;-0.178;2023-05-24T03:34:08;8.93;;;1.70;;
43419;SDS011;29017;51.514;-0.178;2023-05-24T03:36:36;8.30;;;1.00;;
43419;SDS011;29017;51.514;-0.178;2023-05-24T03:39:03;12.45;;;2.22;;
43419;SDS011;29017;51.514;-0.178;2023-05-24T03:41:30;10.50;;;1.30;;
43419;SDS011;29017;51.514;-0.178;2023-05-24T03:43:57;5.10;;;1.30;;
43419;SDS011;29017;51.514;-0.178;2023-05-24T03:46:25;9.10;;;1.27;;
43419;SDS011;29017;51.514;-0.178;2023-05-24T03:48:52;5.50;;;1.23;;
43419;SDS011;29017;51.514;-0.178;2023-05-24T03:51:19;7.60;;;1.23;;
43419;SDS011;29017;51.514;-0.178;2023-05-24T03:53:49;13.85;;;1.58;;
43419;SDS011;29017;51.514;-0.178;2023-05-24T03:56:16;10.88;;;1.08;;
43419;SDS011;29017;51.514;-0.178;2023-05-24T03:58:43;7.05;;;0.90;;
43419;SDS011;29017;51.514;-0.178;2023-05-24T04:01:10;6.18;;;1.30;;
43419;SDS011;29017;51.514;-0.178;2023-05-24T04:03:54;6.28;;;1.20;;
43419;SDS011;29017;51.514;-0.178;2023-05-24T04:06:22;11.55;;;1.65;;
43419;SDS011;29017;51.514;-0.178;2023-05-24T04:08:54;9.13;;;1.65;;
43419;SDS011;29017;51.514;-0.178;2023-05-24T04:11:22;7.53;;;1.25;;
43419;SDS011;29017;51.514;-0.178;2023-05-24T04:13:54;5.38;;;1.30;;
43419;SDS011;29017;51.514;-0.178;2023-05-24T04:16:21;11.30;;;2.35;;
43419;SDS011;29017;51.514;-0.178;2023-05-24T04:18:52;9.13;;;1.70;;
43419;SDS011;29017;51.514;-0.178;2023-05-24T04:21:21;6.40;;;1.52;;
43419;SDS011;29017;51.514;-0.178;2023-05-24T04:23:48;8.00;;;1.90;;
43419;SDS011;29017;51.514;-0.178;2023-05-24T04:26:15;13.60;;;2.08;;
43419;SDS011;29017;51.514;-0.178;2023-05-24T04:28:43;11.90;;;1.50;;
43419;SDS011;29017;51.514;-0.178;2023-05-24T04:31:12;9.75;;;1.52;;
43419;SDS011;29017;51.514;-0.178;2023-05-24T04:33:39;10.35;;;1.63;;
43419;SDS011;29017;51.514;-0.178;2023-05-24T04:36:07;8.48;;;1.63;;
43419;SDS011;29017;51.514;-0.178;2023-05-24T04:38:37;6.78;;;1.50;;
43419;SDS011;29017;51.514;-0.178;2023-05-24T04:41:05;11.23;;;1.83;;
43419;SDS011;29017;51.514;-0.178;2023-05-24T04:43:32;9.88;;;2.22;;
43419;SDS011;29017;51.514;-0.178;2023-05-24T04:46:01;9.07;;;1.83;;
43419;SDS011;29017;51.514;-0.178;2023-05-24T04:48:28;12.55;;;1.98;;
43419;SDS011;29017;51.514;-0.178;2023-05-24T04:50:56;16.17;;;2.10;;
43419;SDS011;29017;51.514;-0.178;2023-05-24T04:53:24;11.07;;;2.00;;
43419;SDS011;29017;51.514;-0.178;2023-05-24T04:55:51;16.05;;;2.05;;
43419;SDS011;29017;51.514;-0.178;2023-05-24T04:58:19;9.02;;;1.70;;
43419;SDS011;29017;51.514;-0.178;2023-05-24T05:00:46;8.45;;;1.75;;
43419;SDS011;29017;51.514;-0.178;2023-05-24T05:03:13;11.88;;;2.22;;
43419;SDS011;29017;51.514;-0.178;2023-05-24T05:05:41;15.40;;;2.13;;
43419;SDS011;29017;51.514;-0.178;2023-05-24T05:08:08;8.07;;;1.95;;
43419;SDS011;29017;51.514;-0.178;2023-05-24T05:10:36;9.82;;;2.30;;
43419;SDS011;29017;51.514;-0.178;2023-05-24T05:13:03;12.68;;;2.13;;
43419;SDS011;29017;51.514;-0.178;2023-05-24T05:15:30;12.65;;;1.90;;
43419;SDS011;29017;51.514;-0.178;2023-05-24T05:17:58;8.30;;;2.00;;
43419;SDS011;29017;51.514;-0.178;2023-05-24T05:20:25;8.65;;;1.63;;
43419;SDS011;29017;51.514;-0.178;2023-05-24T05:22:53;14.10;;;2.50;;
43419;SDS011;29017;51.514;-0.178;2023-05-24T05:25:20;11.73;;;2.17;;
43419;SDS011;29017;51.514;-0.178;2023-05-24T05:27:47;10.05;;;1.88;;
43419;SDS011;29017;51.514;-0.178;2023-05-24T05:30:14;13.93;;;1.90;;
43419;SDS011;29017;51.514;-0.178;2023-05-24T05:32:42;13.50;;;2.22;;
43419;SDS011;29017;51.514;-0.178;2023-05-24T05:35:09;15.95;;;2.25;;
43419;SDS011;29017;51.514;-0.178;2023-05-24T05:37:36;10.38;;;2.20;;
43419;SDS011;29017;51.514;-0.178;2023-05-24T05:40:04;16.60;;;2.38;;
43419;SDS011;29017;51.514;-0.178;2023-05-24T05:42:31;16.75;;;3.30;;
43419;SDS011;29017;51.514;-0.178;2023-05-24T05:44:58;14.63;;;2.60;;
43419;SDS011;29017;51.514;-0.178;2023-05-24T05:47:26;11.68;;;2.42;;
43419;SDS011;29017;51.514;-0.178;2023-05-24T05:49:53;14.38;;;2.80;;
43419;SDS011;29017;51.514;-0.178;2023-05-24T05:52:20;14.50;;;2.45;;
43419;SDS011;29017;51.514;-0.178;2023-05-24T05:54:47;12.23;;;2.17;;
43419;SDS011;29017;51.514;-0.178;2023-05-24T05:57:14;12.45;;;2.35;;
43419;SDS011;29017;51.514;-0.178;2023-05-24T05:59:42;12.63;;;2.00;;
43419;SDS011;29017;51.514;-0.178;2023-05-24T06:02:09;12.27;;;2.33;;
43419;SDS011;29017;51.514;-0.178;2023-05-24T06:04:38;12.35;;;1.85;;
43419;SDS011;29017;51.514;-0.178;2023-05-24T06:07:06;14.98;;;2.72;;
43419;SDS011;29017;51.514;-0.178;2023-05-24T06:09:33;10.82;;;2.25;;
43419;SDS011;29017;51.514;-0.178;2023-05-24T06:12:00;10.95;;;2.03;;
43419;SDS011;29017;51.514;-0.178;2023-05-24T06:14:27;20.33;;;3.05;;
43419;SDS011;29017;51.514;-0.178;2023-05-24T06:16:54;14.73;;;2.00;;
43419;SDS011;29017;51.514;-0.178;2023-05-24T06:19:25;13.93;;;1.98;;
43419;SDS011;29017;51.514;-0.178;2023-05-24T06:21:52;12.75;;;2.20;;
43419;SDS011;29017;51.514;-0.178;2023-05-24T06:24:19;13.93;;;2.10;;
43419;SDS011;29017;51.514;-0.178;2023-05-24T06:26:47;13.77;;;1.95;;
43419;SDS011;29017;51.514;-0.178;2023-05-24T06:29:16;12.93;;;2.25;;
43419;SDS011;29017;51.514;-0.178;2023-05-24T06:31:47;8.32;;;2.00;;
43419;SDS011;29017;51.514;-0.178;2023-05-24T06:34:15;10.75;;;2.13;;
43419;SDS011;29017;51.514;-0.178;2023-05-24T06:36:43;12.30;;;2.15;;
43419;SDS011;29017;51.514;-0.178;2023-05-24T06:39:13;8.82;;;1.63;;
43419;SDS011;29017;51.514;-0.178;2023-05-24T06:41:42;12.85;;;1.65;;
43419;SDS011;29017;51.514;-0.178;2023-05-24T06:44:10;13.30;;;2.33;;
43419;SDS011;29017;51.514;-0.178;2023-05-24T06:46:37;14.65;;;3.75;;
43419;SDS011;29017;51.514;-0.178;2023-05-24T06:49:05;8.80;;;1.90;;
43419;SDS011;29017;51.514;-0.178;2023-05-24T06:51:32;11.40;;;1.88;;
43419;SDS011;29017;51.514;-0.178;2023-05-24T06:54:00;14.45;;;2.63;;
43419;SDS011;29017;51.514;-0.178;2023-05-24T06:56:32;12.55;;;2.10;;
43419;SDS011;29017;51.514;-0.178;2023-05-24T06:59:01;16.30;;;2.78;;
43419;SDS011;29017;51.514;-0.178;2023-05-24T07:01:28;13.80;;;1.98;;
43419;SDS011;29017;51.514;-0.178;2023-05-24T07:03:56;15.65;;;3.20;;
43419;SDS011;29017;51.514;-0.178;2023-05-24T07:06:23;14.10;;;1.88;;
43419;SDS011;29017;51.514;-0.178;2023-05-24T07:08:50;19.50;;;2.45;;
43419;SDS011;29017;51.514;-0.178;2023-05-24T07:11:18;12.65;;;2.05;;
43419;SDS011;29017;51.514;-0.178;2023-05-24T07:13:45;15.02;;;2.03;;
43419;SDS011;29017;51.514;-0.178;2023-05-24T07:16:12;10.30;;;2.35;;
43419;SDS011;29017;51.514;-0.178;2023-05-24T07:18:39;13.57;;;1.77;;
43419;SDS011;29017;51.514;-0.178;2023-05-24T07:21:07;15.23;;;3.05;;
43419;SDS011;29017;51.514;-0.178;2023-05-24T07:23:34;9.18;;;1.88;;
43419;SDS011;29017;51.514;-0.178;2023-05-24T07:26:03;15.70;;;2.03;;
43419;SDS011;29017;51.514;-0.178;2023-05-24T07:28:30;10.40;;;1.85;;
43419;SDS011;29017;51.514;-0.178;2023-05-24T07:30:58;13.27;;;2.50;;
43419;SDS011;29017;51.514;-0.178;2023-05-24T07:33:25;12.88;;;2.05;;
43419;SDS011;29017;51.514;-0.178;2023-05-24T07:35:52;10.95;;;1.55;;
43419;SDS011;29017;51.514;-0.178;2023-05-24T07:38:20;16.50;;;2.33;;
43419;SDS011;29017;51.514;-0.178;2023-05-24T07:40:47;11.95;;;1.83;;
43419;SDS011;29017;51.514;-0.178;2023-05-24T07:43:14;11.15;;;1.48;;
43419;SDS011;29017;51.514;-0.178;2023-05-24T07:45:42;9.15;;;1.52;;
43419;SDS011;29017;51.514;-0.178;2023-05-24T07:48:09;14.18;;;2.80;;
43419;SDS011;29017;51.514;-0.178;2023-05-24T07:50:37;12.25;;;1.77;;
43419;SDS011;29017;51.514;-0.178;2023-05-24T07:53:04;11.45;;;1.60;;
43419;SDS011;29017;51.514;-0.178;2023-05-24T07:55:31;12.00;;;1.73;;
43419;SDS011;29017;51.514;-0.178;2023-05-24T07:57:59;10.52;;;2.28;;
43419;SDS011;29017;51.514;-0.178;2023-05-24T08:00:30;11.15;;;1.50;;
43419;SDS011;29017;51.514;-0.178;2023-05-24T08:02:59;10.80;;;1.60;;
43419;SDS011;29017;51.514;-0.178;2023-05-24T08:05:27;10.80;;;1.95;;
43419;SDS011;29017;51.514;-0.178;2023-05-24T08:07:54;14.75;;;1.85;;
43419;SDS011;29017;51.514;-0.178;2023-05-24T08:10:22;8.93;;;1.60;;
43419;SDS011;29017;51.514;-0.178;2023-05-24T08:12:51;10.68;;;1.85;;
43419;SDS011;29017;51.514;-0.178;2023-05-24T08:15:20;10.63;;;1.85;;
43419;SDS011;29017;51.514;-0.178;2023-05-24T08:17:48;7.32;;;1.85;;
43419;SDS011;29017;51.514;-0.178;2023-05-24T08:20:16;8.88;;;1.70;;
43419;SDS011;29017;51.514;-0.178;2023-05-24T08:22:44;12.80;;;1.60;;
43419;SDS011;29017;51.514;-0.178;2023-05-24T08:25:14;10.43;;;1.30;;
43419;SDS011;29017;51.514;-0.178;2023-05-24T08:27:41;8.23;;;1.60;;
43419;SDS011;29017;51.514;-0.178;2023-05-24T08:30:09;13.18;;;1.80;;
43419;SDS011;29017;51.514;-0.178;2023-05-24T08:32:39;11.55;;;1.48;;
43419;SDS011;29017;51.514;-0.178;2023-05-24T08:35:07;16.23;;;2.17;;
43419;SDS011;29017;51.514;-0.178;2023-05-24T08:37:46;12.07;;;1.70;;
43419;SDS011;29017;51.514;-0.178;2023-05-24T08:40:14;8.65;;;1.85;;
43419;SDS011;29017;51.514;-0.178;2023-05-24T08:42:42;9.82;;;1.92;;
43419;SDS011;29017;51.514;-0.178;2023-05-24T08:45:12;10.55;;;1.52;;
43419;SDS011;29017;51.514;-0.178;2023-05-24T08:47:41;12.18;;;1.50;;
43419;SDS011;29017;51.514;-0.178;2023-05-24T08:50:09;11.25;;;1.98;;
43419;SDS011;29017;51.514;-0.178;2023-05-24T08:52:39;10.52;;;1.80;;
43419;SDS011;29017;51.514;-0.178;2023-05-24T08:55:08;11.20;;;2.60;;
43419;SDS011;29017;51.514;-0.178;2023-05-24T08:57:37;7.82;;;1.90;;
43419;SDS011;29017;51.514;-0.178;2023-05-24T09:00:07;10.30;;;2.53;;
43419;SDS011;29017;51.514;-0.178;2023-05-24T09:02:39;8.20;;;1.90;;
43419;SDS011;29017;51.514;-0.178;2023-05-24T09:05:09;8.57;;;1.60;;
43419;SDS011;29017;51.514;-0.178;2023-05-24T09:07:39;11.55;;;1.90;;
43419;SDS011;29017;51.514;-0.178;2023-05-24T09:10:08;10.90;;;1.85;;
43419;SDS011;29017;51.514;-0.178;2023-05-24T09:12:37;10.13;;;2.40;;
43419;SDS011;29017;51.514;-0.178;2023-05-24T09:15:06;9.73;;;1.33;;
43419;SDS011;29017;51.514;-0.178;2023-05-24T09:17:35;12.20;;;1.83;;
43419;SDS011;29017;51.514;-0.178;2023-05-24T09:20:04;9.68;;;1.70;;
43419;SDS011;29017;51.514;-0.178;2023-05-24T09:22:36;9.70;;;1.50;;
43419;SDS011;29017;51.514;-0.178;2023-05-24T09:25:08;9.95;;;1.80;;
43419;SDS011;29017;51.514;-0.178;2023-05-24T09:27:37;8.90;;;1.65;;
43419;SDS011;29017;51.514;-0.178;2023-05-24T09:30:08;6.72;;;1.67;;
43419;SDS011;29017;51.514;-0.178;2023-05-24T09:32:38;11.50;;;1.95;;
43419;SDS011;29017;51.514;-0.178;2023-05-24T09:35:07;9.48;;;1.23;;
43419;SDS011;29017;51.514;-0.178;2023-05-24T09:37:36;8.93;;;1.70;;
43419;SDS011;29017;51.514;-0.178;2023-05-24T09:40:07;10.23;;;1.73;;
43419;SDS011;29017;51.514;-0.178;2023-05-24T09:42:44;7.30;;;1.50;;
43419;SDS011;29017;51.514;-0.178;2023-05-24T09:45:12;8.77;;;1.20;;
43419;SDS011;29017;51.514;-0.178;2023-05-24T09:47:40;11.68;;;1.60;;
43419;SDS011;29017;51.514;-0.178;2023-05-24T09:50:13;9.95;;;1.58;;
43419;SDS011;29017;51.514;-0.178;2023-05-24T09:52:43;8.18;;;1.48;;
43419;SDS011;29017;51.514;-0.178;2023-05-24T09:55:15;9.82;;;1.75;;
43419;SDS011;29017;51.514;-0.178;2023-05-24T09:57:48;9.25;;;1.48;;
43419;SDS011;29017;51.514;-0.178;2023-05-24T10:00:21;8.40;;;1.58;;
43419;SDS011;29017;51.514;-0.178;2023-05-24T10:05:29;8.90;;;1.30;;
43419;SDS011;29017;51.514;-0.178;2023-05-24T10:07:57;9.57;;;1.58;;
43419;SDS011;29017;51.514;-0.178;2023-05-24T10:10:26;8.80;;;1.50;;
43419;SDS011;29017;51.514;-0.178;2023-05-24T10:12:55;7.45;;;1.63;;
43419;SDS011;29017;51.514;-0.178;2023-05-24T10:15:23;6.68;;;1.77;;
43419;SDS011;29017;51.514;-0.178;2023-05-24T10:17:53;10.25;;;1.90;;
43419;SDS011;29017;51.514;-0.178;2023-05-24T10:20:22;11.20;;;1.70;;
43419;SDS011;29017;51.514;-0.178;2023-05-24T10:22:52;7.18;;;1.55;;
43419;SDS011;29017;51.514;-0.178;2023-05-24T10:25:26;12.00;;;1.40;;
43419;SDS011;29017;51.514;-0.178;2023-05-24T10:27:56;7.80;;;1.90;;
43419;SDS011;29017;51.514;-0.178;2023-05-24T10:30:30;10.07;;;1.52;;
43419;SDS011;29017;51.514;-0.178;2023-05-24T10:33:03;10.20;;;1.45;;
43419;SDS011;29017;51.514;-0.178;2023-05-24T10:35:34;8.00;;;1.90;;
43419;SDS011;29017;51.514;-0.178;2023-05-24T10:38:04;9.32;;;2.00;;
43419;SDS011;29017;51.514;-0.178;2023-05-24T10:40:33;7.95;;;1.50;;
43419;SDS011;29017;51.514;-0.178;2023-05-24T10:43:07;9.80;;;1.75;;
43419;SDS011;29017;51.514;-0.178;2023-05-24T10:45:36;11.27;;;1.75;;
43419;SDS011;29017;51.514;-0.178;2023-05-24T10:50:40;10.45;;;1.85;;
43419;SDS011;29017;51.514;-0.178;2023-05-24T11:00:56;7.60;;;1.02;;
43419;SDS011;29017;51.514;-0.178;2023-05-24T11:03:24;10.93;;;1.90;;
43419;SDS011;29017;51.514;-0.178;2023-05-24T11:05:52;7.50;;;1.67;;
43419;SDS011;29017;51.514;-0.178;2023-05-24T11:11:01;7.18;;;1.30;;
43419;SDS011;29017;51.514;-0.178;2023-05-24T11:13:48;11.15;;;1.50;;
43419;SDS011;29017;51.514;-0.178;2023-05-24T11:19:10;10.27;;;1.65;;
43419;SDS011;29017;51.514;-0.178;2023-05-24T11:21:43;7.13;;;1.63;;
43419;SDS011;29017;51.514;-0.178;2023-05-24T11:24:12;9.82;;;1.52;;
43419;SDS011;29017;51.514;-0.178;2023-05-24T11:26:40;8.48;;;1.63;;
43419;SDS011;29017;51.514;-0.178;2023-05-24T11:29:08;10.27;;;2.00;;
43419;SDS011;29017;51.514;-0.178;2023-05-24T11:31:36;11.45;;;2.10;;
43419;SDS011;29017;51.514;-0.178;2023-05-24T11:34:09;7.13;;;1.55;;
43419;SDS011;29017;51.514;-0.178;2023-05-24T11:36:36;11.55;;;1.92;;
43419;SDS011;29017;51.514;-0.178;2023-05-24T11:39:06;5.70;;;1.70;;
43419;SDS011;29017;51.514;-0.178;2023-05-24T11:41:36;11.40;;;2.20;;
43419;SDS011;29017;51.514;-0.178;2023-05-24T11:44:04;11.48;;;1.80;;
43419;SDS011;29017;51.514;-0.178;2023-05-24T11:46:32;13.35;;;2.85;;
43419;SDS011;29017;51.514;-0.178;2023-05-24T11:48:59;5.78;;;1.40;;
43419;SDS011;29017;51.514;-0.178;2023-05-24T11:51:28;8.32;;;1.90;;
43419;SDS011;29017;51.514;-0.178;2023-05-24T11:54:00;7.45;;;1.80;;
43419;SDS011;29017;51.514;-0.178;2023-05-24T11:57:00;5.65;;;1.58;;
43419;SDS011;29017;51.514;-0.178;2023-05-24T11:59:30;11.18;;;1.70;;
43419;SDS011;29017;51.514;-0.178;2023-05-24T12:02:01;9.30;;;1.85;;
43419;SDS011;29017;51.514;-0.178;2023-05-24T12:04:36;10.65;;;1.83;;
43419;SDS011;29017;51.514;-0.178;2023-05-24T12:07:14;9.10;;;1.65;;
43419;SDS011;29017;51.514;-0.178;2023-05-24T12:09:43;10.13;;;1.90;;
43419;SDS011;29017;51.514;-0.178;2023-05-24T12:12:11;6.97;;;2.38;;
43419;SDS011;29017;51.514;-0.178;2023-05-24T12:14:43;8.23;;;1.98;;
43419;SDS011;29017;51.514;-0.178;2023-05-24T12:17:32;7.22;;;1.75;;
43419;SDS011;29017;51.514;-0.178;2023-05-24T12:19:59;5.32;;;1.67;;
43419;SDS011;29017;51.514;-0.178;2023-05-24T12:22:30;6.40;;;1.65;;
43419;SDS011;29017;51.514;-0.178;2023-05-24T12:24:58;5.57;;;1.83;;
43419;SDS011;29017;51.514;-0.178;2023-05-24T12:27:26;5.32;;;1.67;;
43419;SDS011;29017;51.514;-0.178;2023-05-24T12:29:55;6.82;;;1.85;;
43419;SDS011;29017;51.514;-0.178;2023-05-24T12:32:51;8.20;;;1.52;;
43419;SDS011;29017;51.514;-0.178;2023-05-24T12:35:24;10.32;;;2.08;;
43419;SDS011;29017;51.514;-0.178;2023-05-24T12:37:57;9.25;;;1.88;;
43419;SDS011;29017;51.514;-0.178;2023-05-24T12:40:27;7.43;;;1.73;;
43419;SDS011;29017;51.514;-0.178;2023-05-24T12:43:03;7.28;;;1.70;;
43419;SDS011;29017;51.514;-0.178;2023-05-24T12:45:55;9.27;;;2.00;;
43419;SDS011;29017;51.514;-0.178;2023-05-24T12:48:26;9.30;;;1.80;;
43419;SDS011;29017;51.514;-0.178;2023-05-24T12:50:54;7.80;;;1.58;;
43419;SDS011;29017;51.514;-0.178;2023-05-24T12:53:22;7.95;;;1.55;;
43419;SDS011;29017;51.514;-0.178;2023-05-24T12:55:53;8.30;;;2.20;;
43419;SDS011;29017;51.514;-0.178;2023-05-24T12:58:40;10.60;;;1.70;;
43419;SDS011;29017;51.514;-0.178;2023-05-24T13:01:12;7.28;;;1.83;;
43419;SDS011;29017;51.514;-0.178;2023-05-24T13:03:56;10.27;;;1.52;;
43419;SDS011;29017;51.514;-0.178;2023-05-24T13:06:36;9.50;;;2.05;;
43419;SDS011;29017;51.514;-0.178;2023-05-24T13:09:06;7.03;;;1.67;;
43419;SDS011;29017;51.514;-0.178;2023-05-24T13:11:36;10.10;;;1.67;;
43419;SDS011;29017;51.514;-0.178;2023-05-24T13:14:08;4.35;;;1.63;;
43419;SDS011;29017;51.514;-0.178;2023-05-24T13:16:57;6.50;;;1.48;;
43419;SDS011;29017;51.514;-0.178;2023-05-24T13:19:24;8.43;;;1.77;;
43419;SDS011;29017;51.514;-0.178;2023-05-24T13:21:52;6.63;;;2.42;;
43419;SDS011;29017;51.514;-0.178;2023-05-24T13:24:20;6.63;;;2.08;;
43419;SDS011;29017;51.514;-0.178;2023-05-24T13:30:14;9.85;;;1.88;;
43419;SDS011;29017;51.514;-0.178;2023-05-24T13:32:59;6.60;;;1.48;;
43419;SDS011;29017;51.514;-0.178;2023-05-24T13:35:32;8.55;;;1.52;;
43419;SDS011;29017;51.514;-0.178;2023-05-24T13:38:32;8.07;;;2.20;;
43419;SDS011;29017;51.514;-0.178;2023-05-24T13:41:16;6.80;;;1.38;;
43419;SDS011;29017;51.514;-0.178;2023-05-24T13:43:54;5.10;;;1.65;;
43419;SDS011;29017;51.514;-0.178;2023-05-24T13:47:06;13.68;;;2.33;;
43419;SDS011;29017;51.514;-0.178;2023-05-24T13:49:59;7.63;;;2.47;;
43419;SDS011;29017;51.514;-0.178;2023-05-24T13:52:27;7.05;;;2.15;;
43419;SDS011;29017;51.514;-0.178;2023-05-24T13:54:54;4.88;;;1.63;;
43419;SDS011;29017;51.514;-0.178;2023-05-24T13:57:24;7.70;;;1.70;;
43419;SDS011;29017;51.514;-0.178;2023-05-24T14:00:08;12.38;;;2.88;;
43419;SDS011;29017;51.514;-0.178;2023-05-24T14:02:36;9.05;;;2.00;;
43419;SDS011;29017;51.514;-0.178;2023-05-24T14:05:07;8.75;;;1.95;;
43419;SDS011;29017;51.514;-0.178;2023-05-24T14:07:52;10.30;;;2.03;;
43419;SDS011;29017;51.514;-0.178;2023-05-24T14:10:20;8.68;;;1.80;;
43419;SDS011;29017;51.514;-0.178;2023-05-24T14:12:48;9.73;;;2.00;;
43419;SDS011;29017;51.514;-0.178;2023-05-24T14:15:35;8.50;;;1.95;;
43419;SDS011;29017;51.514;-0.178;2023-05-24T14:18:02;9.10;;;2.08;;
43419;SDS011;29017;51.514;-0.178;2023-05-24T14:20:34;6.75;;;2.05;;
43419;SDS011;29017;51.514;-0.178;2023-05-24T14:23:03;8.13;;;1.80;;
43419;SDS011;29017;51.514;-0.178;2023-05-24T14:25:32;8.82;;;2.25;;
43419;SDS011;29017;51.514;-0.178;2023-05-24T14:28:00;9.63;;;2.40;;
43419;SDS011;29017;51.514;-0.178;2023-05-24T14:30:27;9.93;;;2.10;;
43419;SDS011;29017;51.514;-0.178;2023-05-24T14:32:58;9.60;;;2.08;;
43419;SDS011;29017;51.514;-0.178;2023-05-24T14:35:26;8.13;;;1.80;;
43419;SDS011;29017;51.514;-0.178;2023-05-24T14:37:54;11.30;;;2.78;;
43419;SDS011;29017;51.514;-0.178;2023-05-24T14:40:21;6.88;;;2.08;;
43419;SDS011;29017;51.514;-0.178;2023-05-24T14:42:49;6.28;;;1.90;;
43419;SDS011;29017;51.514;-0.178;2023-05-24T14:45:16;10.35;;;2.63;;
43419;SDS011;29017;51.514;-0.178;2023-05-24T14:47:45;10.85;;;2.47;;
43419;SDS011;29017;51.514;-0.178;2023-05-24T14:50:13;8.63;;;2.47;;
43419;SDS011;29017;51.514;-0.178;2023-05-24T14:52:40;7.07;;;1.67;;
43419;SDS011;29017;51.514;-0.178;2023-05-24T14:55:07;7.10;;;2.00;;
43419;SDS011;29017;51.514;-0.178;2023-05-24T14:57:35;7.05;;;1.67;;
43419;SDS011;29017;51.514;-0.178;2023-05-24T15:00:02;11.45;;;2.38;;
43419;SDS011;29017;51.514;-0.178;2023-05-24T15:02:30;8.88;;;1.85;;
43419;SDS011;29017;51.514;-0.178;2023-05-24T15:05:00;9.25;;;2.63;;
43419;SDS011;29017;51.514;-0.178;2023-05-24T15:07:27;7.97;;;2.42;;
43419;SDS011;29017;51.514;-0.178;2023-05-24T15:09:55;11.45;;;1.92;;
43419;SDS011;29017;51.514;-0.178;2023-05-24T15:12:22;11.85;;;2.28;;
43419;SDS011;29017;51.514;-0.178;2023-05-24T15:14:50;5.55;;;2.10;;
43419;SDS011;29017;51.514;-0.178;2023-05-24T15:17:18;7.40;;;2.08;;
43419;SDS011;29017;51.514;-0.178;2023-05-24T15:19:47;11.98;;;2.35;;